createdAt,value
2023-02-04T00:00:21.561Z,8.30
2023-02-04T00:02:49.762Z,8.30
2023-02-04T00:05:18.673Z,8.30
2023-02-04T00:07:46.767Z,8.30
2023-02-04T00:10:15.158Z,8.20
2023-02-04T00:12:44.592Z,8.20
2023-02-04T00:15:12.656Z,8.20
2023-02-04T00:17:40.587Z,8.10
2023-02-04T00:20:09.258Z,8.10
2023-02-04T00:22:37.273Z,8.10
2023-02-04T00:25:05.647Z,8.10
2023-02-04T00:27:33.732Z,8.00
2023-02-04T00:30:03.243Z,8.00
2023-02-04T00:32:31.364Z,8.00
2023-02-04T00:34:59.405Z,8.00
2023-02-04T00:37:27.451Z,7.90
2023-02-04T00:39:55.523Z,7.90
2023-02-04T00:42:23.589Z,7.80
2023-02-04T00:44:51.678Z,7.80
2023-02-04T00:47:21.093Z,7.70
2023-02-04T00:49:49.189Z,7.70
2023-02-04T00:52:17.210Z,7.60
2023-02-04T00:54:45.334Z,7.60
2023-02-04T00:57:13.412Z,7.50
2023-02-04T00:59:41.541Z,7.50
2023-02-04T01:02:09.651Z,7.40
2023-02-04T01:04:39.017Z,7.40
2023-02-04T01:07:07.136Z,7.30
2023-02-04T01:09:35.344Z,7.30
2023-02-04T01:12:03.549Z,7.20
2023-02-04T01:14:31.633Z,7.20
2023-02-04T01:16:59.720Z,7.20
2023-02-04T01:19:27.788Z,7.10
2023-02-04T01:21:57.192Z,7.10
2023-02-04T01:24:25.314Z,7.10
2023-02-04T01:26:53.432Z,7.10
2023-02-04T01:29:21.477Z,7.00
2023-02-04T01:31:49.592Z,7.00
2023-02-04T01:34:17.751Z,7.00
2023-02-04T01:36:45.769Z,7.10
2023-02-04T01:39:15.751Z,7.10
2023-02-04T01:41:43.905Z,7.10
2023-02-04T01:44:12.219Z,7.10
2023-02-04T01:46:40.344Z,7.00
2023-02-04T01:49:08.709Z,7.00
2023-02-04T01:51:37.972Z,6.90
2023-02-04T01:54:06.017Z,6.90
2023-02-04T01:56:35.414Z,6.90
2023-02-04T01:59:03.593Z,6.90
2023-02-04T02:01:40.749Z,6.90
2023-02-04T02:04:09.576Z,6.90
2023-02-04T02:06:39.130Z,6.90
2023-02-04T02:09:07.376Z,7.00
2023-02-04T02:11:36.947Z,7.00
2023-02-04T02:14:05.928Z,7.00
2023-02-04T02:16:34.268Z,7.00
2023-02-04T02:19:02.448Z,7.10
2023-02-04T02:21:35.030Z,7.10
2023-02-04T02:24:28.233Z,7.10
2023-02-04T02:26:57.845Z,7.10
2023-02-04T02:29:26.847Z,7.10
2023-02-04T02:31:57.356Z,7.10
2023-02-04T02:34:26.420Z,7.10
2023-02-04T02:36:54.828Z,7.10
2023-02-04T02:39:24.440Z,7.10
2023-02-04T02:41:52.716Z,7.10
2023-02-04T02:44:20.884Z,7.10
2023-02-04T02:46:49.323Z,7.10
2023-02-04T02:49:18.999Z,7.20
2023-02-04T02:51:47.609Z,7.20
2023-02-04T02:54:24.125Z,7.20
2023-02-04T02:56:54.290Z,7.20
2023-02-04T02:59:22.455Z,7.20
2023-02-04T03:01:54.858Z,7.20
2023-02-04T03:04:23.597Z,7.20
2023-02-04T03:06:52.879Z,7.10
2023-02-04T03:09:21.676Z,7.10
2023-02-04T03:11:50.060Z,7.10
2023-02-04T03:14:19.885Z,7.10
2023-02-04T03:16:49.120Z,7.10
2023-02-04T03:19:17.475Z,7.00
2023-02-04T03:21:46.618Z,7.10
2023-02-04T03:24:14.718Z,7.10
2023-02-04T03:26:42.985Z,7.00
2023-02-04T03:29:11.780Z,7.00
2023-02-04T03:31:41.325Z,6.90
2023-02-04T03:34:09.465Z,6.80
2023-02-04T03:36:37.755Z,6.80
2023-02-04T03:39:05.933Z,6.70
2023-02-04T03:41:33.980Z,6.70
2023-02-04T03:44:02.038Z,6.60
2023-02-04T03:46:30.427Z,6.50
2023-02-04T03:48:59.879Z,6.50
2023-02-04T03:51:27.901Z,6.40
2023-02-04T03:53:55.974Z,6.40
2023-02-04T03:56:24.060Z,6.40
2023-02-04T03:58:52.134Z,6.40
2023-02-04T04:01:20.270Z,6.40
2023-02-04T04:03:48.480Z,6.30
2023-02-04T04:06:17.921Z,6.30
2023-02-04T04:08:46.057Z,6.20
2023-02-04T04:11:14.221Z,6.20
2023-02-04T04:13:44.855Z,6.10
2023-02-04T04:16:12.967Z,6.10
2023-02-04T04:18:40.869Z,6.00
2023-02-04T04:21:08.950Z,5.90
2023-02-04T04:23:38.426Z,5.90
2023-02-04T04:26:06.565Z,5.80
2023-02-04T04:28:34.613Z,5.80
2023-02-04T04:31:02.746Z,5.90
2023-02-04T04:33:30.894Z,5.80
2023-02-04T04:35:58.937Z,5.80
2023-02-04T04:38:28.073Z,5.70
2023-02-04T04:40:57.438Z,5.70
2023-02-04T04:43:25.707Z,5.70
2023-02-04T04:45:53.869Z,5.70
2023-02-04T04:48:23.248Z,5.80
2023-02-04T04:50:51.233Z,5.80
2023-02-04T04:53:19.335Z,5.80
2023-02-04T04:55:47.392Z,5.80
2023-02-04T04:58:16.800Z,5.80
2023-02-04T05:00:44.892Z,5.80
2023-02-04T05:03:12.965Z,5.90
2023-02-04T05:05:41.386Z,5.90
2023-02-04T05:08:13.029Z,5.90
2023-02-04T05:10:41.358Z,5.90
2023-02-04T05:13:09.639Z,6.00
2023-02-04T05:15:39.142Z,6.00
2023-02-04T05:18:07.227Z,6.10
2023-02-04T05:20:35.341Z,6.10
2023-02-04T05:23:05.488Z,6.10
2023-02-04T05:25:34.028Z,6.10
2023-02-04T05:28:02.199Z,6.20
2023-02-04T05:30:30.637Z,6.10
2023-02-04T05:33:00.185Z,6.20
2023-02-04T05:35:28.308Z,6.20
2023-02-04T05:37:56.406Z,6.20
2023-02-04T05:40:24.471Z,6.20
2023-02-04T05:42:52.566Z,6.30
2023-02-04T05:45:20.622Z,6.30
2023-02-04T05:47:48.836Z,6.30
2023-02-04T05:50:18.612Z,6.30
2023-02-04T05:52:46.690Z,6.30
2023-02-04T05:55:15.129Z,6.30
2023-02-04T05:57:43.241Z,6.30
2023-02-04T06:00:13.266Z,6.30
2023-02-04T06:02:41.732Z,6.30
2023-02-04T06:05:09.899Z,6.30
2023-02-04T06:07:39.323Z,6.30
2023-02-04T06:10:07.583Z,6.30
2023-02-04T06:12:35.665Z,6.30
2023-02-04T06:15:03.862Z,6.30
2023-02-04T06:17:31.901Z,6.30
2023-02-04T06:20:00.000Z,6.40
2023-02-04T06:22:28.055Z,6.40
2023-02-04T06:24:57.502Z,6.40
2023-02-04T06:27:25.688Z,6.40
2023-02-04T06:29:54.923Z,6.40
2023-02-04T06:32:23.344Z,6.40
2023-02-04T06:34:51.507Z,6.40
2023-02-04T06:37:19.521Z,6.40
2023-02-04T06:39:47.633Z,6.40
2023-02-04T06:42:17.178Z,6.40
2023-02-04T06:44:45.240Z,6.40
2023-02-04T06:47:13.278Z,6.40
2023-02-04T06:49:41.354Z,6.40
2023-02-04T06:52:09.619Z,6.40
2023-02-04T06:54:38.015Z,6.40
2023-02-04T06:57:07.612Z,6.40
2023-02-04T06:59:38.378Z,6.50
2023-02-04T07:02:07.983Z,6.50
2023-02-04T07:04:36.297Z,6.50
2023-02-04T07:07:04.890Z,6.50
2023-02-04T07:09:33.007Z,6.50
2023-02-04T07:12:01.018Z,6.50
2023-02-04T07:14:29.106Z,6.50
2023-02-04T07:16:58.824Z,6.50
2023-02-04T07:19:26.915Z,6.50
2023-02-04T07:21:56.941Z,6.50
2023-02-04T07:24:25.387Z,6.50
2023-02-04T07:26:54.642Z,6.50
2023-02-04T07:29:25.744Z,6.50
2023-02-04T07:31:54.253Z,6.60
2023-02-04T07:34:23.799Z,6.60
2023-02-04T07:36:51.947Z,6.60
2023-02-04T07:39:19.955Z,6.60
2023-02-04T07:41:48.005Z,6.60
2023-02-04T07:44:16.018Z,6.60
2023-02-04T07:46:44.125Z,6.70
2023-02-04T07:49:12.219Z,6.70
2023-02-04T07:51:41.609Z,6.70
2023-02-04T07:54:09.688Z,6.70
2023-02-04T07:56:37.798Z,6.70
2023-02-04T07:59:06.605Z,6.80
2023-02-04T08:01:35.047Z,6.80
2023-02-04T08:04:03.166Z,6.80
2023-02-04T08:06:31.389Z,6.80
2023-02-04T08:09:00.827Z,6.80
2023-02-04T08:11:28.957Z,6.90
2023-02-04T08:13:56.969Z,6.90
2023-02-04T08:16:25.097Z,6.90
2023-02-04T08:18:53.119Z,6.90
2023-02-04T08:21:21.817Z,6.90
2023-02-04T08:23:49.867Z,7.00
2023-02-04T08:26:19.310Z,7.10
2023-02-04T08:28:47.345Z,7.10
2023-02-04T08:31:15.491Z,7.10
2023-02-04T08:33:43.719Z,7.20
2023-02-04T08:36:11.730Z,7.20
2023-02-04T08:38:40.562Z,7.30
2023-02-04T08:41:08.818Z,7.40
2023-02-04T08:43:39.674Z,7.40
2023-02-04T08:46:07.954Z,7.50
2023-02-04T08:48:36.145Z,7.50
2023-02-04T08:51:04.415Z,7.50
2023-02-04T08:53:32.555Z,7.50
2023-02-04T08:56:00.599Z,7.60
2023-02-04T08:58:28.678Z,7.70
2023-02-04T09:01:00.252Z,7.70
2023-02-04T09:03:28.390Z,7.70
2023-02-04T09:05:56.540Z,7.70
2023-02-04T09:08:25.641Z,7.80
2023-02-04T09:10:53.720Z,7.80
2023-02-04T09:13:21.896Z,7.90
2023-02-04T09:15:50.065Z,8.00
2023-02-04T09:18:21.980Z,8.00
2023-02-04T09:20:50.724Z,8.10
2023-02-04T09:23:19.242Z,8.10
2023-02-04T09:25:47.661Z,8.20
2023-02-04T09:28:17.235Z,8.20
2023-02-04T09:30:47.471Z,8.30
2023-02-04T09:33:17.554Z,8.30
2023-02-04T09:35:46.979Z,8.40
2023-02-04T09:38:15.112Z,8.50
2023-02-04T09:40:47.883Z,8.60
2023-02-04T09:43:21.189Z,8.80
2023-02-04T09:45:50.897Z,8.90
2023-02-04T09:48:19.553Z,9.10
2023-02-04T09:50:49.656Z,9.20
2023-02-04T09:53:21.982Z,9.10
2023-02-04T09:55:52.259Z,9.20
2023-02-04T09:58:21.863Z,9.30
2023-02-04T10:00:57.388Z,9.30
2023-02-04T10:03:25.424Z,9.30
2023-02-04T10:05:55.012Z,9.40
2023-02-04T10:08:30.599Z,9.40
2023-02-04T10:10:58.768Z,9.40
2023-02-04T10:13:33.397Z,9.30
2023-02-04T10:16:02.904Z,9.40
2023-02-04T10:18:34.282Z,9.60
2023-02-04T10:21:15.469Z,9.80
2023-02-04T10:23:46.261Z,9.80
2023-02-04T10:26:15.068Z,10.00
2023-02-04T10:28:43.969Z,10.20
2023-02-04T10:31:39.179Z,10.30
2023-02-04T10:34:11.671Z,10.30
2023-02-04T10:36:41.862Z,10.40
2023-02-04T10:39:14.812Z,10.50
2023-02-04T10:41:50.161Z,10.60
2023-02-04T10:44:21.048Z,10.70
2023-02-04T10:46:49.342Z,10.70
2023-02-04T10:49:22.270Z,10.70
2023-02-04T10:51:53.933Z,10.70
2023-02-04T10:54:31.637Z,10.80
2023-02-04T10:57:09.429Z,11.10
2023-02-04T10:59:38.092Z,11.20
2023-02-04T11:02:42.224Z,11.00
2023-02-04T11:05:14.968Z,11.20
2023-02-04T11:07:45.477Z,11.40
2023-02-04T11:10:16.309Z,11.40
2023-02-04T11:12:46.121Z,11.40
2023-02-04T11:15:45.223Z,11.10
2023-02-04T11:18:26.477Z,11.00
2023-02-04T11:20:57.425Z,11.10
2023-02-04T11:23:36.345Z,11.10
2023-02-04T11:26:17.194Z,11.30
2023-02-04T11:28:51.027Z,11.40
2023-02-04T11:31:44.322Z,11.40
2023-02-04T11:34:30.834Z,11.40
2023-02-04T11:37:39.062Z,11.30
2023-02-04T11:40:26.846Z,11.30
2023-02-04T11:42:59.543Z,11.20
2023-02-04T11:45:31.175Z,11.20
2023-02-04T11:48:01.846Z,11.20
2023-02-04T11:50:33.037Z,11.30
2023-02-04T11:53:02.948Z,11.30
2023-02-04T11:55:35.715Z,11.30
2023-02-04T11:58:03.934Z,11.30
2023-02-04T12:00:34.178Z,11.30
2023-02-04T12:03:06.377Z,11.40
2023-02-04T12:05:41.758Z,11.30
2023-02-04T12:08:14.831Z,11.50
2023-02-04T12:10:51.375Z,11.70
2023-02-04T12:13:24.405Z,11.90
2023-02-04T12:16:00.779Z,12.00
2023-02-04T12:18:29.411Z,11.90
2023-02-04T12:20:58.528Z,11.80
2023-02-04T12:23:27.563Z,11.70
2023-02-04T12:25:57.477Z,11.60
2023-02-04T12:28:25.988Z,11.70
2023-02-04T12:30:54.701Z,11.70
2023-02-04T12:33:23.613Z,11.60
2023-02-04T12:35:51.937Z,11.60
2023-02-04T12:38:20.649Z,11.60
2023-02-04T12:40:48.764Z,11.60
2023-02-04T12:43:18.122Z,11.60
2023-02-04T12:45:49.702Z,11.60
2023-02-04T12:48:18.090Z,11.60
2023-02-04T12:50:46.174Z,11.80
2023-02-04T12:53:14.193Z,12.20
2023-02-04T12:55:42.464Z,12.40
2023-02-04T12:58:10.614Z,12.30
2023-02-04T13:00:40.158Z,12.10
2023-02-04T13:03:08.410Z,12.00
2023-02-04T13:05:36.786Z,11.80
2023-02-04T13:08:05.173Z,11.70
2023-02-04T13:10:33.415Z,11.70
2023-02-04T13:13:04.442Z,12.00
2023-02-04T13:15:33.165Z,12.40
2023-02-04T13:18:02.971Z,12.70
2023-02-04T13:20:31.036Z,12.80
2023-02-04T13:22:59.131Z,12.80
2023-02-04T13:25:27.765Z,12.70
2023-02-04T13:27:55.889Z,12.50
2023-02-04T13:30:24.245Z,12.40
2023-02-04T13:32:52.404Z,12.30
2023-02-04T13:35:21.796Z,12.50
2023-02-04T13:37:50.016Z,12.40
2023-02-04T13:40:18.379Z,12.50
2023-02-04T13:42:46.497Z,12.80
2023-02-04T13:45:16.284Z,13.20
2023-02-04T13:47:44.438Z,13.20
2023-02-04T13:50:12.470Z,13.20
2023-02-04T13:52:41.919Z,13.10
2023-02-04T13:55:10.185Z,13.20
2023-02-04T13:57:38.623Z,13.10
2023-02-04T14:00:07.935Z,13.00
2023-02-04T14:02:36.159Z,12.70
2023-02-04T14:05:04.416Z,12.70
2023-02-04T14:07:33.539Z,12.60
2023-02-04T14:10:03.314Z,12.30
2023-02-04T14:12:31.416Z,12.20
2023-02-04T14:14:59.527Z,12.10
2023-02-04T14:17:27.968Z,12.10
2023-02-04T14:19:55.993Z,12.00
2023-02-04T14:22:24.118Z,12.00
2023-02-04T14:24:52.305Z,12.10
2023-02-04T14:27:21.699Z,12.00
2023-02-04T14:29:49.892Z,12.00
2023-02-04T14:32:18.095Z,12.00
2023-02-04T14:34:46.140Z,12.10
2023-02-04T14:37:14.968Z,12.00
2023-02-04T14:39:43.156Z,12.00
2023-02-04T14:42:11.208Z,12.10
2023-02-04T14:44:40.613Z,12.00
2023-02-04T14:47:08.692Z,11.90
2023-02-04T14:49:38.066Z,11.90
2023-02-04T14:52:06.507Z,11.80
2023-02-04T14:54:34.654Z,11.70
2023-02-04T14:57:02.853Z,11.70
2023-02-04T14:59:30.906Z,11.70
2023-02-04T15:02:00.306Z,11.60
2023-02-04T15:04:28.345Z,11.50
2023-02-04T15:06:57.707Z,11.40
2023-02-04T15:09:25.900Z,11.30
2023-02-04T15:11:54.020Z,11.30
2023-02-04T15:14:22.312Z,11.20
2023-02-04T15:16:50.443Z,11.20
2023-02-04T15:19:21.611Z,11.20
2023-02-04T15:21:49.669Z,11.20
2023-02-04T15:24:17.753Z,11.20
2023-02-04T15:26:45.807Z,11.20
2023-02-04T15:29:13.895Z,11.10
2023-02-04T15:31:42.182Z,11.10
2023-02-04T15:34:10.388Z,11.00
2023-02-04T15:36:39.781Z,11.00
2023-02-04T15:39:07.850Z,11.00
2023-02-04T15:41:35.883Z,10.90
2023-02-04T15:44:05.591Z,10.90
2023-02-04T15:46:34.842Z,10.80
2023-02-04T15:49:03.576Z,10.80
2023-02-04T15:51:31.793Z,10.80
2023-02-04T15:54:01.203Z,10.80
2023-02-04T15:56:29.343Z,10.70
2023-02-04T15:58:57.462Z,10.70
2023-02-04T16:01:25.575Z,10.70
2023-02-04T16:03:56.516Z,10.60
2023-02-04T16:06:24.985Z,10.60
2023-02-04T16:08:53.513Z,10.60
2023-02-04T16:11:23.052Z,10.60
2023-02-04T16:13:51.192Z,10.50
2023-02-04T16:16:20.295Z,10.50
2023-02-04T16:18:48.501Z,10.50
2023-02-04T16:21:16.751Z,10.50
2023-02-04T16:23:44.924Z,10.40
2023-02-04T16:26:13.016Z,10.40
2023-02-04T16:28:42.607Z,10.40
2023-02-04T16:31:11.986Z,10.40
2023-02-04T16:33:40.056Z,10.30
2023-02-04T16:36:11.701Z,10.30
2023-02-04T16:38:39.936Z,10.20
2023-02-04T16:41:08.307Z,10.20
2023-02-04T16:43:36.720Z,10.20
2023-02-04T16:46:06.524Z,10.20
2023-02-04T16:48:36.154Z,10.20
2023-02-04T16:51:04.572Z,10.10
2023-02-04T16:53:33.380Z,10.10
2023-02-04T16:56:02.208Z,10.10
2023-02-04T16:58:30.347Z,10.00
2023-02-04T17:00:59.901Z,10.10
2023-02-04T17:03:29.364Z,10.10
2023-02-04T17:05:57.502Z,10.10
2023-02-04T17:08:25.574Z,10.10
2023-02-04T17:11:11.592Z,10.10
2023-02-04T17:13:39.645Z,10.00
2023-02-04T17:16:08.085Z,10.00
2023-02-04T17:18:37.437Z,10.00
2023-02-04T17:21:05.808Z,10.00
2023-02-04T17:23:35.417Z,9.90
2023-02-04T17:26:03.778Z,9.90
2023-02-04T17:28:31.827Z,9.90
2023-02-04T17:30:59.994Z,9.90
2023-02-04T17:33:28.289Z,9.90
2023-02-04T17:35:57.752Z,9.90
2023-02-04T17:38:27.633Z,9.90
2023-02-04T17:40:56.349Z,9.80
2023-02-04T17:43:24.728Z,9.80
2023-02-04T17:45:52.896Z,9.80
2023-02-04T17:48:21.109Z,9.80
2023-02-04T17:50:49.265Z,9.80
2023-02-04T17:53:18.971Z,9.70
2023-02-04T17:55:47.031Z,9.70
2023-02-04T17:58:17.098Z,9.70
2023-02-04T18:00:47.188Z,9.70
2023-02-04T18:03:17.494Z,9.60
2023-02-04T18:05:47.508Z,9.60
2023-02-04T18:08:17.658Z,9.50
2023-02-04T18:10:48.313Z,9.50
2023-02-04T18:13:18.232Z,9.60
2023-02-04T18:15:49.586Z,9.50
2023-02-04T18:18:23.363Z,9.50
2023-02-04T18:21:00.763Z,9.50
2023-02-04T18:23:30.319Z,9.40
2023-02-04T18:26:10.890Z,9.40
2023-02-04T18:28:44.392Z,9.40
2023-02-04T18:31:26.066Z,9.40
2023-02-04T18:33:54.186Z,9.40
2023-02-04T18:36:23.182Z,9.30
2023-02-04T18:38:51.734Z,9.30
2023-02-04T18:41:33.922Z,9.20
2023-02-04T18:44:16.593Z,9.10
2023-02-04T18:46:48.831Z,9.20
2023-02-04T18:49:25.697Z,9.20
2023-02-04T18:51:53.939Z,9.20
2023-02-04T18:54:28.133Z,9.20
2023-02-04T18:57:09.268Z,9.20
2023-02-04T18:59:37.458Z,9.20
2023-02-04T19:02:25.011Z,9.20
2023-02-04T19:05:06.144Z,9.10
2023-02-04T19:07:40.622Z,9.10
2023-02-04T19:10:27.870Z,9.10
2023-02-04T19:13:13.336Z,9.10
2023-02-04T19:15:41.573Z,9.10
2023-02-04T19:18:23.523Z,9.00
2023-02-04T19:20:52.164Z,9.10
2023-02-04T19:23:22.083Z,9.10
2023-02-04T19:25:52.248Z,9.10
2023-02-04T19:28:30.287Z,9.00
2023-02-04T19:31:01.863Z,9.00
2023-02-04T19:33:36.822Z,9.00
2023-02-04T19:36:30.305Z,8.90
2023-02-04T19:39:00.637Z,8.90
2023-02-04T19:41:34.451Z,8.90
2023-02-04T19:44:41.774Z,8.90
2023-02-04T19:47:26.116Z,9.00
2023-02-04T19:50:02.768Z,9.00
2023-02-04T19:52:39.014Z,8.90
2023-02-04T19:55:36.307Z,8.90
2023-02-04T19:58:16.196Z,8.90
2023-02-04T20:00:47.750Z,8.90
2023-02-04T20:03:38.209Z,8.90
2023-02-04T20:06:27.514Z,8.90
2023-02-04T20:09:00.819Z,8.80
2023-02-04T20:11:41.831Z,8.70
2023-02-04T20:14:28.884Z,8.70
2023-02-04T20:17:00.254Z,8.70
2023-02-04T20:19:35.186Z,8.70
2023-02-04T20:22:33.258Z,8.80
2023-02-04T20:25:28.960Z,8.80
2023-02-04T20:28:03.918Z,8.80
2023-02-04T20:30:32.672Z,8.70
2023-02-04T20:33:23.648Z,8.70
2023-02-04T20:36:38.326Z,8.70
2023-02-04T20:39:36.026Z,8.70
2023-02-04T20:42:27.389Z,8.70
2023-02-04T20:44:55.869Z,8.60
2023-02-04T20:47:25.461Z,8.60
2023-02-04T20:49:56.386Z,8.70
2023-02-04T20:53:02.485Z,8.60
2023-02-04T20:55:32.347Z,8.60
2023-02-04T20:58:15.260Z,8.60
2023-02-04T21:00:44.304Z,8.60
2023-02-04T21:03:20.751Z,8.60
2023-02-04T21:05:50.398Z,8.60
2023-02-04T21:08:37.095Z,8.50
2023-02-04T21:11:06.189Z,8.50
2023-02-04T21:13:34.540Z,8.50
2023-02-04T21:16:04.728Z,8.50
2023-02-04T21:18:34.504Z,8.50
2023-02-04T21:21:04.728Z,8.50
2023-02-04T21:23:32.838Z,8.60
2023-02-04T21:26:02.192Z,8.60
2023-02-04T21:28:31.959Z,8.60
2023-02-04T21:31:00.788Z,8.50
2023-02-04T21:33:28.964Z,8.60
2023-02-04T21:35:57.052Z,8.60
2023-02-04T21:38:26.501Z,8.60
2023-02-04T21:40:54.649Z,8.60
2023-02-04T21:43:22.680Z,8.60
2023-02-04T21:45:50.762Z,8.60
2023-02-04T21:48:18.815Z,8.60
2023-02-04T21:50:46.923Z,8.60
2023-02-04T21:53:14.988Z,8.60
2023-02-04T21:55:44.377Z,8.60
2023-02-04T21:58:12.451Z,8.60
2023-02-04T22:00:40.504Z,8.60
2023-02-04T22:03:13.026Z,8.60
2023-02-04T22:05:41.070Z,8.60
2023-02-04T22:08:09.439Z,8.60
2023-02-04T22:10:37.778Z,8.60
2023-02-04T22:13:24.408Z,8.60
2023-02-04T22:15:52.513Z,8.60
2023-02-04T22:18:20.784Z,8.60
2023-02-04T22:20:48.871Z,8.70
2023-02-04T22:23:17.445Z,8.70
2023-02-04T22:25:45.531Z,8.70
2023-02-04T22:28:14.969Z,8.70
2023-02-04T22:30:43.023Z,8.70
2023-02-04T22:33:11.740Z,8.60
2023-02-04T22:35:39.823Z,8.60
2023-02-04T22:38:07.938Z,8.60
2023-02-04T22:40:35.994Z,8.60
2023-02-04T22:43:04.648Z,8.60
2023-02-04T22:45:34.403Z,8.60
2023-02-04T22:48:02.577Z,8.60
2023-02-04T22:50:30.671Z,8.60
2023-02-04T22:52:58.810Z,8.60
2023-02-04T22:55:26.977Z,8.60
2023-02-04T22:57:55.062Z,8.60
2023-02-04T23:00:23.130Z,8.60
2023-02-04T23:02:52.600Z,8.60
2023-02-04T23:05:20.716Z,8.50
2023-02-04T23:07:48.747Z,8.60
2023-02-04T23:10:17.126Z,8.50
2023-02-04T23:12:45.207Z,8.50
2023-02-04T23:15:13.753Z,8.50
2023-02-04T23:17:41.772Z,8.50
2023-02-04T23:20:11.919Z,8.50
2023-02-04T23:22:40.072Z,8.50
2023-02-04T23:25:08.935Z,8.50
2023-02-04T23:27:37.070Z,8.40
2023-02-04T23:30:06.306Z,8.40
2023-02-04T23:32:34.643Z,8.40
2023-02-04T23:35:02.671Z,8.40
2023-02-04T23:37:32.494Z,8.40
2023-02-04T23:40:00.614Z,8.40
2023-02-04T23:42:30.626Z,8.40
2023-02-04T23:44:58.821Z,8.40
2023-02-04T23:47:26.808Z,8.40
2023-02-04T23:49:54.923Z,8.40
2023-02-04T23:52:22.987Z,8.50
2023-02-04T23:54:52.419Z,8.50
2023-02-04T23:57:20.453Z,8.50
2023-02-04T23:59:48.544Z,8.50
